sensor_id;sensor_type;location;lat;lon;timestamp;temperature;humidity
84435;SHT30;74664;45.620;5.138;2024-02-23T00:01:44;10.82;58.38
84435;SHT30;74664;45.620;5.138;2024-02-23T00:04:11;10.77;58.22
84435;SHT30;74664;45.620;5.138;2024-02-23T00:06:38;10.71;57.65
84435;SHT30;74664;45.620;5.138;2024-02-23T00:09:04;10.70;57.31
84435;SHT30;74664;45.620;5.138;2024-02-23T00:11:31;10.65;57.12
84435;SHT30;74664;45.620;5.138;2024-02-23T00:13:59;10.63;57.48
84435;SHT30;74664;45.620;5.138;2024-02-23T00:16:26;10.61;57.33
84435;SHT30;74664;45.620;5.138;2024-02-23T00:18:55;10.60;57.04
84435;SHT30;74664;45.620;5.138;2024-02-23T00:21:23;10.57;56.65
84435;SHT30;74664;45.620;5.138;2024-02-23T00:23:50;10.53;56.40
84435;SHT30;74664;45.620;5.138;2024-02-23T00:26:16;10.50;56.33
84435;SHT30;74664;45.620;5.138;2024-02-23T00:28:43;10.47;56.53
84435;SHT30;74664;45.620;5.138;2024-02-23T00:31:10;10.46;56.38
84435;SHT30;74664;45.620;5.138;2024-02-23T00:33:36;10.44;55.91
84435;SHT30;74664;45.620;5.138;2024-02-23T00:36:08;10.37;56.02
84435;SHT30;74664;45.620;5.138;2024-02-23T00:38:35;10.37;55.40
84435;SHT30;74664;45.620;5.138;2024-02-23T00:41:02;10.32;55.42
84435;SHT30;74664;45.620;5.138;2024-02-23T00:43:29;10.32;55.86
84435;SHT30;74664;45.620;5.138;2024-02-23T00:45:55;10.28;55.79
84435;SHT30;74664;45.620;5.138;2024-02-23T00:48:22;10.28;55.57
84435;SHT30;74664;45.620;5.138;2024-02-23T00:50:49;10.23;55.85
84435;SHT30;74664;45.620;5.138;2024-02-23T00:53:17;10.17;55.90
84435;SHT30;74664;45.620;5.138;2024-02-23T00:55:45;10.19;55.84
84435;SHT30;74664;45.620;5.138;2024-02-23T00:58:12;10.17;55.85
84435;SHT30;74664;45.620;5.138;2024-02-23T01:00:39;10.20;56.57
84435;SHT30;74664;45.620;5.138;2024-02-23T01:03:07;10.20;55.86
84435;SHT30;74664;45.620;5.138;2024-02-23T01:05:33;10.20;55.63
84435;SHT30;74664;45.620;5.138;2024-02-23T01:08:00;10.20;55.70
84435;SHT30;74664;45.620;5.138;2024-02-23T01:10:28;10.22;55.61
84435;SHT30;74664;45.620;5.138;2024-02-23T01:12:55;10.22;55.79
84435;SHT30;74664;45.620;5.138;2024-02-23T01:15:22;10.24;55.73
84435;SHT30;74664;45.620;5.138;2024-02-23T01:17:49;10.28;55.94
84435;SHT30;74664;45.620;5.138;2024-02-23T01:20:16;10.28;56.53
84435;SHT30;74664;45.620;5.138;2024-02-23T01:22:42;10.28;56.65
84435;SHT30;74664;45.620;5.138;2024-02-23T01:25:09;10.24;56.78
84435;SHT30;74664;45.620;5.138;2024-02-23T01:27:37;10.20;56.81
84435;SHT30;74664;45.620;5.138;2024-02-23T01:30:06;10.19;56.80
84435;SHT30;74664;45.620;5.138;2024-02-23T01:32:33;10.14;56.35
84435;SHT30;74664;45.620;5.138;2024-02-23T01:35:00;10.08;56.62
84435;SHT30;74664;45.620;5.138;2024-02-23T01:37:27;10.05;56.52
84435;SHT30;74664;45.620;5.138;2024-02-23T01:39:54;10.02;56.54
84435;SHT30;74664;45.620;5.138;2024-02-23T01:42:21;10.02;56.06
84435;SHT30;74664;45.620;5.138;2024-02-23T01:44:50;9.98;56.02
84435;SHT30;74664;45.620;5.138;2024-02-23T01:47:17;9.98;56.29
84435;SHT30;74664;45.620;5.138;2024-02-23T01:49:45;9.95;56.06
84435;SHT30;74664;45.620;5.138;2024-02-23T01:52:13;9.93;56.71
84435;SHT30;74664;45.620;5.138;2024-02-23T01:54:40;9.89;57.15
84435;SHT30;74664;45.620;5.138;2024-02-23T01:57:08;9.86;57.37
84435;SHT30;74664;45.620;5.138;2024-02-23T01:59:36;9.85;57.13
84435;SHT30;74664;45.620;5.138;2024-02-23T02:02:06;9.79;57.69
84435;SHT30;74664;45.620;5.138;2024-02-23T02:04:32;9.77;57.64
84435;SHT30;74664;45.620;5.138;2024-02-23T02:06:59;9.72;57.04
84435;SHT30;74664;45.620;5.138;2024-02-23T02:12:41;9.64;58.02
84435;SHT30;74664;45.620;5.138;2024-02-23T02:15:08;9.59;58.42
84435;SHT30;74664;45.620;5.138;2024-02-23T02:17:36;9.54;58.28
84435;SHT30;74664;45.620;5.138;2024-02-23T02:20:04;9.47;58.17
84435;SHT30;74664;45.620;5.138;2024-02-23T02:22:32;9.44;58.07
84435;SHT30;74664;45.620;5.138;2024-02-23T02:24:59;9.41;57.96
84435;SHT30;74664;45.620;5.138;2024-02-23T02:27:26;9.40;57.89
84435;SHT30;74664;45.620;5.138;2024-02-23T02:29:53;9.35;57.90
84435;SHT30;74664;45.620;5.138;2024-02-23T02:32:19;9.33;57.83
84435;SHT30;74664;45.620;5.138;2024-02-23T02:34:47;9.33;57.85
84435;SHT30;74664;45.620;5.138;2024-02-23T02:37:14;9.30;57.71
84435;SHT30;74664;45.620;5.138;2024-02-23T02:39:41;9.26;58.31
84435;SHT30;74664;45.620;5.138;2024-02-23T02:42:09;9.26;58.54
84435;SHT30;74664;45.620;5.138;2024-02-23T02:44:36;9.23;58.70
84435;SHT30;74664;45.620;5.138;2024-02-23T02:47:03;9.22;59.00
84435;SHT30;74664;45.620;5.138;2024-02-23T02:49:29;9.17;59.11
84435;SHT30;74664;45.620;5.138;2024-02-23T02:51:57;9.10;59.33
84435;SHT30;74664;45.620;5.138;2024-02-23T02:54:24;9.09;59.40
84435;SHT30;74664;45.620;5.138;2024-02-23T02:56:50;9.04;59.46
84435;SHT30;74664;45.620;5.138;2024-02-23T02:59:19;9.00;60.24
84435;SHT30;74664;45.620;5.138;2024-02-23T03:01:46;9.00;60.17
84435;SHT30;74664;45.620;5.138;2024-02-23T03:04:13;8.96;59.82
84435;SHT30;74664;45.620;5.138;2024-02-23T03:06:42;8.96;59.94
84435;SHT30;74664;45.620;5.138;2024-02-23T03:09:10;8.89;59.70
84435;SHT30;74664;45.620;5.138;2024-02-23T03:11:37;8.83;59.80
84435;SHT30;74664;45.620;5.138;2024-02-23T03:14:04;8.80;59.71
84435;SHT30;74664;45.620;5.138;2024-02-23T03:16:31;8.75;59.95
84435;SHT30;74664;45.620;5.138;2024-02-23T03:18:59;8.69;60.42
84435;SHT30;74664;45.620;5.138;2024-02-23T03:21:26;8.66;59.85
84435;SHT30;74664;45.620;5.138;2024-02-23T03:23:52;8.62;60.22
84435;SHT30;74664;45.620;5.138;2024-02-23T03:26:21;8.58;60.49
84435;SHT30;74664;45.620;5.138;2024-02-23T03:28:48;8.55;60.39
84435;SHT30;74664;45.620;5.138;2024-02-23T03:31:15;8.51;60.37
84435;SHT30;74664;45.620;5.138;2024-02-23T03:33:42;8.45;60.35
84435;SHT30;74664;45.620;5.138;2024-02-23T03:36:08;8.42;60.49
84435;SHT30;74664;45.620;5.138;2024-02-23T03:38:35;8.37;60.57
84435;SHT30;74664;45.620;5.138;2024-02-23T03:41:02;8.34;60.67
84435;SHT30;74664;45.620;5.138;2024-02-23T03:43:31;8.30;60.88
84435;SHT30;74664;45.620;5.138;2024-02-23T03:45:58;8.25;61.28
84435;SHT30;74664;45.620;5.138;2024-02-23T03:48:24;8.24;61.38
84435;SHT30;74664;45.620;5.138;2024-02-23T03:50:51;8.21;61.48
84435;SHT30;74664;45.620;5.138;2024-02-23T03:53:19;8.18;61.61
84435;SHT30;74664;45.620;5.138;2024-02-23T03:55:46;8.13;61.69
84435;SHT30;74664;45.620;5.138;2024-02-23T03:58:12;8.08;61.81
84435;SHT30;74664;45.620;5.138;2024-02-23T04:00:40;8.08;62.10
84435;SHT30;74664;45.620;5.138;2024-02-23T04:03:08;8.03;62.26
84435;SHT30;74664;45.620;5.138;2024-02-23T04:05:35;8.00;62.22
84435;SHT30;74664;45.620;5.138;2024-02-23T04:08:02;7.96;62.12
84435;SHT30;74664;45.620;5.138;2024-02-23T04:10:29;7.93;61.96
84435;SHT30;74664;45.620;5.138;2024-02-23T04:12:58;7.91;62.08
84435;SHT30;74664;45.620;5.138;2024-02-23T04:15:25;7.89;61.97
84435;SHT30;74664;45.620;5.138;2024-02-23T04:17:53;7.87;62.28
84435;SHT30;74664;45.620;5.138;2024-02-23T04:20:20;7.84;62.46
84435;SHT30;74664;45.620;5.138;2024-02-23T04:22:46;7.83;62.85
84435;SHT30;74664;45.620;5.138;2024-02-23T04:25:13;7.83;62.76
84435;SHT30;74664;45.620;5.138;2024-02-23T04:27:40;7.80;62.70
84435;SHT30;74664;45.620;5.138;2024-02-23T04:30:07;7.79;62.82
84435;SHT30;74664;45.620;5.138;2024-02-23T04:32:34;7.72;63.05
84435;SHT30;74664;45.620;5.138;2024-02-23T04:35:02;7.73;63.02
84435;SHT30;74664;45.620;5.138;2024-02-23T04:37:29;7.73;62.98
84435;SHT30;74664;45.620;5.138;2024-02-23T04:39:58;7.70;63.09
84435;SHT30;74664;45.620;5.138;2024-02-23T04:42:25;7.66;63.09
84435;SHT30;74664;45.620;5.138;2024-02-23T04:44:53;7.65;63.05
84435;SHT30;74664;45.620;5.138;2024-02-23T04:47:20;7.62;62.95
84435;SHT30;74664;45.620;5.138;2024-02-23T04:49:47;7.63;62.58
84435;SHT30;74664;45.620;5.138;2024-02-23T04:52:16;7.59;62.72
84435;SHT30;74664;45.620;5.138;2024-02-23T04:54:42;7.52;62.60
84435;SHT30;74664;45.620;5.138;2024-02-23T04:57:10;7.51;62.61
84435;SHT30;74664;45.620;5.138;2024-02-23T04:59:36;7.45;62.41
84435;SHT30;74664;45.620;5.138;2024-02-23T05:02:03;7.45;62.12
84435;SHT30;74664;45.620;5.138;2024-02-23T05:04:30;7.41;62.08
84435;SHT30;74664;45.620;5.138;2024-02-23T05:06:57;7.44;62.43
84435;SHT30;74664;45.620;5.138;2024-02-23T05:09:25;7.45;62.82
84435;SHT30;74664;45.620;5.138;2024-02-23T05:11:51;7.42;62.94
84435;SHT30;74664;45.620;5.138;2024-02-23T05:14:18;7.45;62.78
84435;SHT30;74664;45.620;5.138;2024-02-23T05:16:45;7.42;62.70
84435;SHT30;74664;45.620;5.138;2024-02-23T05:19:11;7.44;62.44
84435;SHT30;74664;45.620;5.138;2024-02-23T05:21:38;7.41;62.50
84435;SHT30;74664;45.620;5.138;2024-02-23T05:24:05;7.38;62.46
84435;SHT30;74664;45.620;5.138;2024-02-23T05:26:33;7.39;62.39
84435;SHT30;74664;45.620;5.138;2024-02-23T05:29:00;7.36;62.23
84435;SHT30;74664;45.620;5.138;2024-02-23T05:31:44;7.36;62.54
84435;SHT30;74664;45.620;5.138;2024-02-23T05:34:12;7.36;62.46
84435;SHT30;74664;45.620;5.138;2024-02-23T05:36:38;7.31;62.58
84435;SHT30;74664;45.620;5.138;2024-02-23T05:39:05;7.29;62.70
84435;SHT30;74664;45.620;5.138;2024-02-23T05:41:35;7.29;63.23
84435;SHT30;74664;45.620;5.138;2024-02-23T05:44:03;7.26;63.35
84435;SHT30;74664;45.620;5.138;2024-02-23T05:46:31;7.26;63.54
84435;SHT30;74664;45.620;5.138;2024-02-23T05:48:58;7.21;63.56
84435;SHT30;74664;45.620;5.138;2024-02-23T05:51:25;7.16;63.54
84435;SHT30;74664;45.620;5.138;2024-02-23T05:53:52;7.15;63.64
84435;SHT30;74664;45.620;5.138;2024-02-23T05:56:18;7.12;63.53
84435;SHT30;74664;45.620;5.138;2024-02-23T05:58:46;7.09;63.37
84435;SHT30;74664;45.620;5.138;2024-02-23T06:01:14;7.08;63.66
84435;SHT30;74664;45.620;5.138;2024-02-23T06:03:40;7.05;63.68
84435;SHT30;74664;45.620;5.138;2024-02-23T06:06:07;7.04;63.47
84435;SHT30;74664;45.620;5.138;2024-02-23T06:08:34;7.04;63.22
84435;SHT30;74664;45.620;5.138;2024-02-23T06:11:03;7.04;63.28
84435;SHT30;74664;45.620;5.138;2024-02-23T06:13:29;6.97;63.42
84435;SHT30;74664;45.620;5.138;2024-02-23T06:15:58;6.97;63.48
84435;SHT30;74664;45.620;5.138;2024-02-23T06:18:24;6.95;63.51
84435;SHT30;74664;45.620;5.138;2024-02-23T06:20:51;6.90;63.54
84435;SHT30;74664;45.620;5.138;2024-02-23T06:23:19;6.91;63.56
84435;SHT30;74664;45.620;5.138;2024-02-23T06:25:47;6.86;63.78
84435;SHT30;74664;45.620;5.138;2024-02-23T06:28:14;6.83;63.97
84435;SHT30;74664;45.620;5.138;2024-02-23T06:30:40;6.81;63.98
84435;SHT30;74664;45.620;5.138;2024-02-23T06:33:08;6.80;64.18
84435;SHT30;74664;45.620;5.138;2024-02-23T06:35:35;6.80;64.03
84435;SHT30;74664;45.620;5.138;2024-02-23T06:38:01;6.83;63.89
84435;SHT30;74664;45.620;5.138;2024-02-23T06:40:28;6.79;63.71
84435;SHT30;74664;45.620;5.138;2024-02-23T06:42:55;6.80;63.71
84435;SHT30;74664;45.620;5.138;2024-02-23T06:45:21;6.76;63.65
84435;SHT30;74664;45.620;5.138;2024-02-23T06:47:51;6.73;63.58
84435;SHT30;74664;45.620;5.138;2024-02-23T06:50:19;6.66;63.63
84435;SHT30;74664;45.620;5.138;2024-02-23T06:52:46;6.67;63.74
84435;SHT30;74664;45.620;5.138;2024-02-23T06:55:14;6.69;63.89
84435;SHT30;74664;45.620;5.138;2024-02-23T06:57:42;6.66;63.79
84435;SHT30;74664;45.620;5.138;2024-02-23T07:00:09;6.65;63.65
84435;SHT30;74664;45.620;5.138;2024-02-23T07:02:37;6.67;63.65
84435;SHT30;74664;45.620;5.138;2024-02-23T07:05:04;6.69;63.75
84435;SHT30;74664;45.620;5.138;2024-02-23T07:07:34;6.72;63.75
84435;SHT30;74664;45.620;5.138;2024-02-23T07:10:00;6.72;64.03
84435;SHT30;74664;45.620;5.138;2024-02-23T07:12:28;6.74;64.07
84435;SHT30;74664;45.620;5.138;2024-02-23T07:14:55;6.77;64.04
84435;SHT30;74664;45.620;5.138;2024-02-23T07:17:22;6.79;63.92
84435;SHT30;74664;45.620;5.138;2024-02-23T07:19:49;6.79;64.03
84435;SHT30;74664;45.620;5.138;2024-02-23T07:22:18;6.77;64.14
84435;SHT30;74664;45.620;5.138;2024-02-23T07:24:46;6.80;64.22
84435;SHT30;74664;45.620;5.138;2024-02-23T07:27:14;6.84;64.29
84435;SHT30;74664;45.620;5.138;2024-02-23T07:29:41;6.87;64.06
84435;SHT30;74664;45.620;5.138;2024-02-23T07:32:08;6.91;63.98
84435;SHT30;74664;45.620;5.138;2024-02-23T07:34:34;6.91;63.74
84435;SHT30;74664;45.620;5.138;2024-02-23T07:37:01;7.00;63.54
84435;SHT30;74664;45.620;5.138;2024-02-23T07:39:28;7.03;63.86
84435;SHT30;74664;45.620;5.138;2024-02-23T07:41:56;7.05;63.62
84435;SHT30;74664;45.620;5.138;2024-02-23T07:44:22;7.09;63.75
84435;SHT30;74664;45.620;5.138;2024-02-23T07:46:50;7.14;63.83
84435;SHT30;74664;45.620;5.138;2024-02-23T07:49:17;7.15;63.86
84435;SHT30;74664;45.620;5.138;2024-02-23T07:51:44;7.18;64.02
84435;SHT30;74664;45.620;5.138;2024-02-23T07:54:11;7.18;64.30
84435;SHT30;74664;45.620;5.138;2024-02-23T07:56:37;7.24;64.14
84435;SHT30;74664;45.620;5.138;2024-02-23T07:59:05;7.22;64.17
84435;SHT30;74664;45.620;5.138;2024-02-23T08:01:32;7.26;64.23
84435;SHT30;74664;45.620;5.138;2024-02-23T08:03:59;7.28;64.21
84435;SHT30;74664;45.620;5.138;2024-02-23T08:06:26;7.29;64.19
84435;SHT30;74664;45.620;5.138;2024-02-23T08:08:52;7.31;64.13
84435;SHT30;74664;45.620;5.138;2024-02-23T08:11:22;7.34;64.28
84435;SHT30;74664;45.620;5.138;2024-02-23T08:13:48;7.38;63.86
84435;SHT30;74664;45.620;5.138;2024-02-23T08:16:17;7.41;63.59
84435;SHT30;74664;45.620;5.138;2024-02-23T08:18:43;7.44;63.53
84435;SHT30;74664;45.620;5.138;2024-02-23T08:21:10;7.49;63.50
84435;SHT30;74664;45.620;5.138;2024-02-23T08:23:38;7.55;63.50
84435;SHT30;74664;45.620;5.138;2024-02-23T08:26:06;7.62;63.60
84435;SHT30;74664;45.620;5.138;2024-02-23T08:28:32;7.67;63.55
84435;SHT30;74664;45.620;5.138;2024-02-23T08:30:59;7.72;63.59
84435;SHT30;74664;45.620;5.138;2024-02-23T08:33:27;7.77;63.63
84435;SHT30;74664;45.620;5.138;2024-02-23T08:35:54;7.82;63.72
84435;SHT30;74664;45.620;5.138;2024-02-23T08:38:21;7.87;64.08
84435;SHT30;74664;45.620;5.138;2024-02-23T08:40:47;7.89;64.19
84435;SHT30;74664;45.620;5.138;2024-02-23T08:43:15;7.91;64.33
84435;SHT30;74664;45.620;5.138;2024-02-23T08:45:42;7.94;64.35
84435;SHT30;74664;45.620;5.138;2024-02-23T08:48:09;7.97;64.56
84435;SHT30;74664;45.620;5.138;2024-02-23T08:50:41;8.01;64.34
84435;SHT30;74664;45.620;5.138;2024-02-23T08:53:08;8.04;64.38
84435;SHT30;74664;45.620;5.138;2024-02-23T08:55:35;8.08;64.46
84435;SHT30;74664;45.620;5.138;2024-02-23T08:58:02;8.13;64.48
84435;SHT30;74664;45.620;5.138;2024-02-23T09:00:31;8.15;64.60
84435;SHT30;74664;45.620;5.138;2024-02-23T09:02:57;8.23;64.60
84435;SHT30;74664;45.620;5.138;2024-02-23T09:05:24;8.30;64.90
84435;SHT30;74664;45.620;5.138;2024-02-23T09:07:54;8.31;64.76
84435;SHT30;74664;45.620;5.138;2024-02-23T09:10:20;8.34;64.58
84435;SHT30;74664;45.620;5.138;2024-02-23T09:12:47;8.42;64.34
84435;SHT30;74664;45.620;5.138;2024-02-23T09:15:14;8.45;64.42
84435;SHT30;74664;45.620;5.138;2024-02-23T09:17:42;8.49;64.50
84435;SHT30;74664;45.620;5.138;2024-02-23T09:20:10;8.58;64.28
84435;SHT30;74664;45.620;5.138;2024-02-23T09:22:37;8.64;64.27
84435;SHT30;74664;45.620;5.138;2024-02-23T09:25:07;8.71;63.89
84435;SHT30;74664;45.620;5.138;2024-02-23T09:27:33;8.77;63.77
84435;SHT30;74664;45.620;5.138;2024-02-23T09:30:02;8.85;63.70
84435;SHT30;74664;45.620;5.138;2024-02-23T09:32:29;8.92;63.28
84435;SHT30;74664;45.620;5.138;2024-02-23T09:34:56;8.96;63.56
84435;SHT30;74664;45.620;5.138;2024-02-23T09:37:22;9.04;63.42
84435;SHT30;74664;45.620;5.138;2024-02-23T09:39:49;9.09;62.55
84435;SHT30;74664;45.620;5.138;2024-02-23T09:42:21;9.20;62.92
84435;SHT30;74664;45.620;5.138;2024-02-23T09:44:57;9.27;62.26
84435;SHT30;74664;45.620;5.138;2024-02-23T09:47:27;9.31;61.88
84435;SHT30;74664;45.620;5.138;2024-02-23T09:49:54;9.37;61.36
84435;SHT30;74664;45.620;5.138;2024-02-23T09:52:21;9.43;60.86
84435;SHT30;74664;45.620;5.138;2024-02-23T09:54:48;9.47;59.58
84435;SHT30;74664;45.620;5.138;2024-02-23T09:57:17;9.50;59.96
84435;SHT30;74664;45.620;5.138;2024-02-23T09:59:45;9.52;59.47
84435;SHT30;74664;45.620;5.138;2024-02-23T10:02:15;9.55;59.42
84435;SHT30;74664;45.620;5.138;2024-02-23T10:04:42;9.59;59.60
84435;SHT30;74664;45.620;5.138;2024-02-23T10:07:10;9.59;58.68
84435;SHT30;74664;45.620;5.138;2024-02-23T10:09:37;9.64;58.37
84435;SHT30;74664;45.620;5.138;2024-02-23T10:12:04;9.68;58.33
84435;SHT30;74664;45.620;5.138;2024-02-23T10:14:32;9.74;58.53
84435;SHT30;74664;45.620;5.138;2024-02-23T10:16:59;9.75;58.65
84435;SHT30;74664;45.620;5.138;2024-02-23T10:19:27;9.81;57.94
84435;SHT30;74664;45.620;5.138;2024-02-23T10:21:55;9.82;56.91
84435;SHT30;74664;45.620;5.138;2024-02-23T10:24:23;9.86;57.49
84435;SHT30;74664;45.620;5.138;2024-02-23T10:26:51;9.89;57.68
84435;SHT30;74664;45.620;5.138;2024-02-23T10:29:17;9.93;57.49
84435;SHT30;74664;45.620;5.138;2024-02-23T10:31:46;9.96;56.68
84435;SHT30;74664;45.620;5.138;2024-02-23T10:34:18;9.98;57.18
84435;SHT30;74664;45.620;5.138;2024-02-23T10:36:45;10.01;56.97
84435;SHT30;74664;45.620;5.138;2024-02-23T10:39:15;10.02;57.11
84435;SHT30;74664;45.620;5.138;2024-02-23T10:41:47;10.06;56.88
84435;SHT30;74664;45.620;5.138;2024-02-23T10:44:16;10.09;56.63
84435;SHT30;74664;45.620;5.138;2024-02-23T10:46:45;10.14;56.72
84435;SHT30;74664;45.620;5.138;2024-02-23T10:49:14;10.20;56.98
84435;SHT30;74664;45.620;5.138;2024-02-23T10:51:43;10.23;56.04
84435;SHT30;74664;45.620;5.138;2024-02-23T10:54:13;10.30;55.66
84435;SHT30;74664;45.620;5.138;2024-02-23T10:56:40;10.36;56.18
84435;SHT30;74664;45.620;5.138;2024-02-23T10:59:08;10.43;56.21
84435;SHT30;74664;45.620;5.138;2024-02-23T11:01:36;10.51;56.36
84435;SHT30;74664;45.620;5.138;2024-02-23T11:04:07;10.59;55.70
84435;SHT30;74664;45.620;5.138;2024-02-23T11:06:34;10.65;55.75
84435;SHT30;74664;45.620;5.138;2024-02-23T11:09:07;10.73;55.72
84435;SHT30;74664;45.620;5.138;2024-02-23T11:11:34;10.75;55.22
84435;SHT30;74664;45.620;5.138;2024-02-23T11:14:03;10.78;55.75
84435;SHT30;74664;45.620;5.138;2024-02-23T11:16:38;10.82;55.45
84435;SHT30;74664;45.620;5.138;2024-02-23T11:19:08;10.85;55.09
84435;SHT30;74664;45.620;5.138;2024-02-23T11:21:37;10.85;54.70
84435;SHT30;74664;45.620;5.138;2024-02-23T11:24:04;10.90;55.07
84435;SHT30;74664;45.620;5.138;2024-02-23T11:26:31;10.94;54.93
84435;SHT30;74664;45.620;5.138;2024-02-23T11:29:09;10.98;54.46
84435;SHT30;74664;45.620;5.138;2024-02-23T11:31:35;11.01;54.93
84435;SHT30;74664;45.620;5.138;2024-02-23T11:34:09;11.05;54.85
84435;SHT30;74664;45.620;5.138;2024-02-23T11:36:38;11.07;54.43
84435;SHT30;74664;45.620;5.138;2024-02-23T11:39:05;11.07;54.28
84435;SHT30;74664;45.620;5.138;2024-02-23T11:41:32;11.12;54.39
84435;SHT30;74664;45.620;5.138;2024-02-23T11:43:58;11.15;54.30
84435;SHT30;74664;45.620;5.138;2024-02-23T11:46:25;11.16;54.06
84435;SHT30;74664;45.620;5.138;2024-02-23T11:48:52;11.18;53.77
84435;SHT30;74664;45.620;5.138;2024-02-23T11:51:21;11.23;54.14
84435;SHT30;74664;45.620;5.138;2024-02-23T11:53:48;11.26;53.72
84435;SHT30;74664;45.620;5.138;2024-02-23T11:56:16;11.28;53.73
84435;SHT30;74664;45.620;5.138;2024-02-23T11:58:43;11.28;53.25
84435;SHT30;74664;45.620;5.138;2024-02-23T12:01:10;11.29;53.28
84435;SHT30;74664;45.620;5.138;2024-02-23T12:03:37;11.33;53.30
84435;SHT30;74664;45.620;5.138;2024-02-23T12:06:05;11.42;53.25
84435;SHT30;74664;45.620;5.138;2024-02-23T12:08:34;11.50;53.18
84435;SHT30;74664;45.620;5.138;2024-02-23T12:11:04;11.60;53.08
84435;SHT30;74664;45.620;5.138;2024-02-23T12:13:32;11.69;52.89
84435;SHT30;74664;45.620;5.138;2024-02-23T12:15:59;11.80;53.39
84435;SHT30;74664;45.620;5.138;2024-02-23T12:18:27;11.86;52.86
84435;SHT30;74664;45.620;5.138;2024-02-23T12:20:59;11.94;52.43
84435;SHT30;74664;45.620;5.138;2024-02-23T12:23:26;11.98;52.69
84435;SHT30;74664;45.620;5.138;2024-02-23T12:25:56;12.05;52.43
84435;SHT30;74664;45.620;5.138;2024-02-23T12:28:24;12.13;51.96
84435;SHT30;74664;45.620;5.138;2024-02-23T12:31:00;12.18;52.35
84435;SHT30;74664;45.620;5.138;2024-02-23T12:33:28;12.18;52.48
84435;SHT30;74664;45.620;5.138;2024-02-23T12:35:56;12.22;52.26
84435;SHT30;74664;45.620;5.138;2024-02-23T12:38:22;12.25;52.09
84435;SHT30;74664;45.620;5.138;2024-02-23T12:40:50;12.28;52.42
84435;SHT30;74664;45.620;5.138;2024-02-23T12:43:18;12.34;51.87
84435;SHT30;74664;45.620;5.138;2024-02-23T12:45:47;12.42;52.19
84435;SHT30;74664;45.620;5.138;2024-02-23T12:48:15;12.49;52.19
84435;SHT30;74664;45.620;5.138;2024-02-23T12:50:42;12.60;52.04
84435;SHT30;74664;45.620;5.138;2024-02-23T12:53:10;12.65;51.79
84435;SHT30;74664;45.620;5.138;2024-02-23T12:55:38;12.65;51.48
84435;SHT30;74664;45.620;5.138;2024-02-23T12:58:04;12.68;51.07
84435;SHT30;74664;45.620;5.138;2024-02-23T13:00:32;12.66;51.45
84435;SHT30;74664;45.620;5.138;2024-02-23T13:02:59;12.69;51.57
84435;SHT30;74664;45.620;5.138;2024-02-23T13:05:25;12.70;51.16
84435;SHT30;74664;45.620;5.138;2024-02-23T13:07:52;12.75;50.83
84435;SHT30;74664;45.620;5.138;2024-02-23T13:10:19;12.79;51.02
84435;SHT30;74664;45.620;5.138;2024-02-23T13:12:46;12.86;51.20
84435;SHT30;74664;45.620;5.138;2024-02-23T13:15:12;12.88;51.14
84435;SHT30;74664;45.620;5.138;2024-02-23T13:17:42;12.89;48.73
84435;SHT30;74664;45.620;5.138;2024-02-23T13:20:09;12.80;49.73
84435;SHT30;74664;45.620;5.138;2024-02-23T13:22:38;12.73;49.07
84435;SHT30;74664;45.620;5.138;2024-02-23T13:25:05;12.63;49.63
84435;SHT30;74664;45.620;5.138;2024-02-23T13:27:32;12.59;49.08
84435;SHT30;74664;45.620;5.138;2024-02-23T13:29:59;12.52;50.01
84435;SHT30;74664;45.620;5.138;2024-02-23T13:32:25;12.49;49.79
84435;SHT30;74664;45.620;5.138;2024-02-23T13:34:54;12.42;49.92
84435;SHT30;74664;45.620;5.138;2024-02-23T13:37:20;12.42;50.17
84435;SHT30;74664;45.620;5.138;2024-02-23T13:39:47;12.45;50.65
84435;SHT30;74664;45.620;5.138;2024-02-23T13:42:14;12.45;50.33
84435;SHT30;74664;45.620;5.138;2024-02-23T13:44:40;12.49;50.05
84435;SHT30;74664;45.620;5.138;2024-02-23T13:47:07;12.56;50.32
84435;SHT30;74664;45.620;5.138;2024-02-23T13:49:35;12.55;50.42
84435;SHT30;74664;45.620;5.138;2024-02-23T13:52:04;12.53;50.68
84435;SHT30;74664;45.620;5.138;2024-02-23T13:54:31;12.51;49.41
84435;SHT30;74664;45.620;5.138;2024-02-23T13:56:59;12.52;50.57
84435;SHT30;74664;45.620;5.138;2024-02-23T13:59:27;12.42;48.51
84435;SHT30;74664;45.620;5.138;2024-02-23T14:01:54;12.32;49.67
84435;SHT30;74664;45.620;5.138;2024-02-23T14:04:21;12.24;50.23
84435;SHT30;74664;45.620;5.138;2024-02-23T14:06:47;12.22;50.53
84435;SHT30;74664;45.620;5.138;2024-02-23T14:09:15;12.22;50.77
84435;SHT30;74664;45.620;5.138;2024-02-23T14:11:42;12.25;50.86
84435;SHT30;74664;45.620;5.138;2024-02-23T14:14:10;12.25;50.94
84435;SHT30;74664;45.620;5.138;2024-02-23T14:16:37;12.25;50.97
84435;SHT30;74664;45.620;5.138;2024-02-23T14:19:04;12.25;51.23
84435;SHT30;74664;45.620;5.138;2024-02-23T14:21:33;12.27;51.37
84435;SHT30;74664;45.620;5.138;2024-02-23T14:24:03;12.25;51.31
84435;SHT30;74664;45.620;5.138;2024-02-23T14:26:31;12.21;51.17
84435;SHT30;74664;45.620;5.138;2024-02-23T14:28:58;12.22;51.46
84435;SHT30;74664;45.620;5.138;2024-02-23T14:31:25;12.20;51.44
84435;SHT30;74664;45.620;5.138;2024-02-23T14:33:52;12.21;51.43
84435;SHT30;74664;45.620;5.138;2024-02-23T14:36:18;12.25;51.66
84435;SHT30;74664;45.620;5.138;2024-02-23T14:38:45;12.27;51.71
84435;SHT30;74664;45.620;5.138;2024-02-23T14:41:12;12.27;51.69
84435;SHT30;74664;45.620;5.138;2024-02-23T14:43:40;12.27;51.50
84435;SHT30;74664;45.620;5.138;2024-02-23T14:46:07;12.27;51.68
84435;SHT30;74664;45.620;5.138;2024-02-23T14:48:34;12.20;51.62
84435;SHT30;74664;45.620;5.138;2024-02-23T14:51:02;12.16;51.97
84435;SHT30;74664;45.620;5.138;2024-02-23T14:53:30;12.10;51.91
84435;SHT30;74664;45.620;5.138;2024-02-23T14:55:56;12.02;51.99
84435;SHT30;74664;45.620;5.138;2024-02-23T14:58:23;12.00;52.29
84435;SHT30;74664;45.620;5.138;2024-02-23T15:00:51;11.95;52.10
84435;SHT30;74664;45.620;5.138;2024-02-23T15:03:18;11.89;52.04
84435;SHT30;74664;45.620;5.138;2024-02-23T15:05:44;11.83;52.71
84435;SHT30;74664;45.620;5.138;2024-02-23T15:08:11;11.77;53.19
84435;SHT30;74664;45.620;5.138;2024-02-23T15:10:37;11.73;53.92
84435;SHT30;74664;45.620;5.138;2024-02-23T15:13:07;11.60;55.26
84435;SHT30;74664;45.620;5.138;2024-02-23T15:15:34;11.40;57.35
84435;SHT30;74664;45.620;5.138;2024-02-23T15:18:09;11.18;57.60
84435;SHT30;74664;45.620;5.138;2024-02-23T15:20:36;11.08;58.30
84435;SHT30;74664;45.620;5.138;2024-02-23T15:23:18;11.10;58.83
84435;SHT30;74664;45.620;5.138;2024-02-23T15:25:47;11.12;59.11
84435;SHT30;74664;45.620;5.138;2024-02-23T15:28:13;11.16;59.24
84435;SHT30;74664;45.620;5.138;2024-02-23T15:30:40;11.19;59.31
84435;SHT30;74664;45.620;5.138;2024-02-23T15:33:11;11.22;59.55
84435;SHT30;74664;45.620;5.138;2024-02-23T15:35:40;11.26;59.57
84435;SHT30;74664;45.620;5.138;2024-02-23T15:38:09;11.29;59.78
84435;SHT30;74664;45.620;5.138;2024-02-23T15:40:36;11.31;60.14
84435;SHT30;74664;45.620;5.138;2024-02-23T15:43:03;11.29;60.29
84435;SHT30;74664;45.620;5.138;2024-02-23T15:45:30;11.31;59.97